Time;durP1;ratioP1;P1;durP2;ratioP2;P2;SDS_P1;SDS_P2;PMS_P1;PMS_P2;Temp;Humidity;BMP_temperature;BMP_pressure;BME280_temperature;BME280_humidity;BME280_pressure;Samples;Min_cycle;Max_cycle;Signal;HPM_P1;HPM_P2
2022/03/08 12:43:12;;;;;;;4.75;4.35;;;7.90;99.90;;;;;;5070735;28;20608;-72
2022/03/08 12:45:40;;;;;;;4.80;4.40;;;8.00;99.90;;;;;;5070671;28;20172;-72
2022/03/08 12:48:13;;;;;;;4.90;4.47;;;8.10;99.90;;;;;;5070633;28;20172;-73
2022/03/08 12:50:48;;;;;;;5.18;4.70;;;8.20;99.90;;;;;;5070623;28;20656;-72
2022/03/08 12:53:25;;;;;;;4.53;4.22;;;8.30;99.90;;;;;;5070596;28;20273;-73
2022/03/08 12:55:53;;;;;;;5.43;4.93;;;8.50;99.90;;;;;;5069503;28;20604;-73
2022/03/08 12:58:31;;;;;;;5.57;5.07;;;8.50;99.90;;;;;;5070506;28;20168;-73
2022/03/08 13:01:02;;;;;;;5.40;4.80;;;8.70;99.90;;;;;;5069123;28;20190;-73
2022/03/08 13:03:30;;;;;;;5.40;4.90;;;8.80;99.90;;;;;;5070334;28;20220;-73
2022/03/08 13:05:59;;;;;;;4.68;4.38;;;8.90;99.90;;;;;;5069060;28;20204;-73
2022/03/08 13:08:27;;;;;;;8.80;4.75;;;9.00;99.90;;;;;;5070199;28;20219;-73
2022/03/08 13:10:58;;;;;;;5.13;4.63;;;9.00;99.90;;;;;;5070177;28;20173;-73
2022/03/08 13:13:24;;;;;;;5.15;4.65;;;9.10;99.90;;;;;;5070136;28;20248;-73
2022/03/08 13:15:51;;;;;;;5.45;4.97;;;9.30;99.90;;;;;;5070152;28;20622;-73
2022/03/08 13:18:21;;;;;;;4.50;4.20;;;9.40;99.90;;;;;;5070024;28;20157;-73
2022/03/08 13:20:52;;;;;;;6.43;5.82;;;9.50;99.90;;;;;;5069918;28;20165;-73
2022/03/08 13:23:23;;;;;;;6.25;4.45;;;9.60;99.90;;;;;;5069925;28;20234;-73
2022/03/08 13:25:55;;;;;;;5.00;4.60;;;9.70;99.90;;;;;;5069847;28;20634;-73
2022/03/08 13:28:23;;;;;;;5.07;4.68;;;9.70;99.90;;;;;;5069853;28;20176;-73
2022/03/08 13:30:51;;;;;;;6.53;5.38;;;9.80;99.90;;;;;;5069735;28;20169;-73
2022/03/08 13:33:30;;;;;;;6.28;5.55;;;9.90;99.90;;;;;;5069567;28;20180;-73
2022/03/08 13:36:09;;;;;;;5.38;4.97;;;10.00;99.90;;;;;;5069683;28;20176;-73
2022/03/08 13:38:39;;;;;;;5.82;5.32;;;10.20;99.90;;;;;;5069544;28;20534;-73
2022/03/08 13:41:07;;;;;;;5.07;4.55;;;10.20;99.90;;;;;;5068027;28;20762;-73
2022/03/08 13:43:35;;;;;;;4.40;4.00;;;10.30;99.90;;;;;;5069511;28;20217;-73
2022/03/08 13:46:02;;;;;;;5.35;4.93;;;10.30;99.90;;;;;;5069370;28;20512;-72
2022/03/08 13:48:33;;;;;;;4.75;4.35;;;10.40;99.90;;;;;;5069365;28;20679;-72
2022/03/08 13:51:07;;;;;;;5.13;4.75;;;10.60;99.90;;;;;;5069123;28;20194;-73
2022/03/08 13:53:33;;;;;;;5.72;5.22;;;10.60;99.90;;;;;;5061458;28;20178;-73
2022/03/08 13:55:59;;;;;;;6.03;5.53;;;10.60;99.90;;;;;;5055959;28;20181;-73
2022/03/08 13:58:31;;;;;;;5.53;5.13;;;10.60;99.90;;;;;;5055772;28;20634;-73
2022/03/08 14:00:56;;;;;;;5.50;4.50;;;10.70;99.90;;;;;;5055650;28;20646;-73
2022/03/08 14:03:22;;;;;;;5.45;4.95;;;10.80;99.90;;;;;;5055713;28;20169;-73
2022/03/08 14:05:48;;;;;;;5.25;4.85;;;10.90;99.90;;;;;;5054443;28;20178;-73
2022/03/08 14:08:42;;;;;;;4.70;4.40;;;11.00;99.90;;;;;;5055718;28;20610;-73
2022/03/08 14:11:10;;;;;;;4.80;4.30;;;11.00;99.90;;;;;;5055632;28;20169;-72
2022/03/08 14:13:54;;;;;;;5.93;5.32;;;11.10;99.90;;;;;;5055447;28;20515;-73
2022/03/08 14:16:23;;;;;;;5.55;5.15;;;11.20;99.90;;;;;;5054470;28;20256;-73
2022/03/08 14:18:52;;;;;;;5.53;5.10;;;11.20;99.90;;;;;;5055608;28;20630;-73
2022/03/08 14:21:32;;;;;;;5.60;5.10;;;11.30;99.90;;;;;;5054177;28;20208;-73
2022/03/08 14:24:08;;;;;;;8.77;5.03;;;11.40;99.90;;;;;;5055335;28;20287;-73
2022/03/08 14:26:34;;;;;;;5.47;4.47;;;11.50;99.90;;;;;;5055298;28;20165;-73
2022/03/08 14:29:01;;;;;;;5.07;4.60;;;11.60;99.90;;;;;;5053931;28;20268;-73
2022/03/08 14:31:34;;;;;;;5.07;4.70;;;11.70;99.90;;;;;;5055340;28;20227;-73
2022/03/08 14:34:18;;;;;;;5.50;5.00;;;11.70;99.90;;;;;;5055233;28;20188;-73
2022/03/08 14:36:57;;;;;;;5.13;4.68;;;11.70;99.90;;;;;;5055227;28;20246;-73
2022/03/08 14:39:34;;;;;;;6.07;5.47;;;11.70;99.90;;;;;;5055297;28;20169;-73
2022/03/08 14:42:03;;;;;;;5.97;5.10;;;11.60;99.90;;;;;;5055079;28;20216;-74
2022/03/08 14:44:38;;;;;;;4.50;4.20;;;11.70;99.90;;;;;;5053844;28;20177;-74
2022/03/08 14:47:06;;;;;;;5.47;4.47;;;11.80;99.90;;;;;;5055133;28;20626;-74
2022/03/08 14:49:32;;;;;;;5.63;5.18;;;11.90;99.90;;;;;;5053830;28;20208;-74
2022/03/08 14:51:59;;;;;;;6.30;5.50;;;12.00;99.90;;;;;;5054963;28;20181;-73
2022/03/08 14:54:25;;;;;;;5.30;4.90;;;12.10;99.90;;;;;;5054989;28;20173;-73
2022/03/08 14:56:51;;;;;;;5.25;4.85;;;12.10;99.90;;;;;;5055039;28;20169;-73
2022/03/08 14:59:18;;;;;;;7.57;4.65;;;12.10;99.90;;;;;;5054952;28;20702;-73
2022/03/08 15:01:45;;;;;;;4.88;4.50;;;12.20;99.90;;;;;;5054926;28;20165;-73
2022/03/08 15:04:11;;;;;;;5.28;4.88;;;12.10;99.90;;;;;;5054411;28;20713;-73
2022/03/08 15:06:38;;;;;;;5.88;5.28;;;12.10;99.90;;;;;;5054182;28;20200;-73
2022/03/08 15:09:06;;;;;;;5.25;4.85;;;12.10;99.90;;;;;;5054735;28;20248;-73
2022/03/08 15:11:32;;;;;;;4.93;4.60;;;12.10;99.90;;;;;;5054515;28;20185;-73
2022/03/08 15:13:58;;;;;;;5.80;4.93;;;12.10;99.90;;;;;;5054595;28;20192;-73
2022/03/08 15:16:24;;;;;;;6.00;5.20;;;12.10;99.90;;;;;;5054874;28;20526;-73
2022/03/08 15:18:49;;;;;;;6.43;5.07;;;12.10;99.90;;;;;;5054474;28;20169;-73
2022/03/08 15:21:15;;;;;;;7.97;6.25;;;11.90;99.90;;;;;;5054455;28;20184;-73
2022/03/08 15:23:41;;;;;;;7.07;5.35;;;11.80;99.90;;;;;;5053095;28;20177;-73
2022/03/08 15:26:07;;;;;;;5.75;5.18;;;11.80;99.90;;;;;;5054262;28;20176;-73
2022/03/08 15:28:32;;;;;;;6.28;5.68;;;11.70;99.90;;;;;;5054259;28;20615;-73
2022/03/08 15:30:58;;;;;;;8.20;5.65;;;11.70;99.90;;;;;;5054206;28;20172;-73
2022/03/08 15:33:26;;;;;;;5.05;4.65;;;11.70;99.90;;;;;;5054146;28;20613;-73
2022/03/08 15:35:52;;;;;;;4.85;4.55;;;11.70;99.90;;;;;;5054180;28;20157;-73
2022/03/08 15:38:18;;;;;;;5.15;4.50;;;11.70;99.90;;;;;;5052834;28;20220;-73
2022/03/08 15:40:43;;;;;;;5.13;4.72;;;11.70;99.90;;;;;;5054030;28;20168;-73
2022/03/08 15:43:09;;;;;;;5.60;4.82;;;11.70;99.90;;;;;;5052560;28;20581;-73
2022/03/08 15:45:35;;;;;;;5.47;4.93;;;11.70;99.90;;;;;;5053926;28;20191;-73
2022/03/08 15:48:00;;;;;;;5.13;4.70;;;11.70;99.90;;;;;;5053908;28;20169;-73
2022/03/08 15:50:26;;;;;;;5.60;4.97;;;11.70;99.90;;;;;;5053904;28;20169;-73
2022/03/08 15:52:52;;;;;;;5.28;4.57;;;11.80;99.90;;;;;;5053742;28;20208;-73
2022/03/08 15:55:17;;;;;;;6.07;5.40;;;11.80;99.90;;;;;;5053734;28;20359;-73
2022/03/08 15:57:43;;;;;;;7.47;5.65;;;11.80;99.90;;;;;;5053733;28;20165;-73
2022/03/08 16:00:11;;;;;;;5.28;4.60;;;11.70;99.90;;;;;;5052443;28;20173;-73
2022/03/08 16:02:37;;;;;;;5.13;4.72;;;11.70;99.90;;;;;;5052407;28;20177;-73
2022/03/08 16:05:04;;;;;;;5.22;4.85;;;11.70;99.90;;;;;;5053557;28;20174;-73
2022/03/08 16:07:30;;;;;;;10.25;4.78;;;11.60;99.90;;;;;;5053442;28;20165;-73
2022/03/08 16:09:55;;;;;;;5.20;4.80;;;11.50;99.90;;;;;;5053468;28;20169;-73
2022/03/08 16:12:21;;;;;;;4.75;4.38;;;11.40;99.90;;;;;;5053249;28;20209;-73
2022/03/08 16:14:47;;;;;;;4.85;4.45;;;11.30;99.90;;;;;;5052134;28;20177;-73
2022/03/08 16:17:13;;;;;;;4.70;4.30;;;11.30;99.90;;;;;;5053141;28;20196;-73
2022/03/08 16:19:38;;;;;;;6.22;5.25;;;11.30;99.90;;;;;;5053381;28;20192;-73
2022/03/08 16:22:04;;;;;;;5.53;4.95;;;11.40;99.90;;;;;;5053407;28;20181;-73
2022/03/08 16:24:30;;;;;;;5.55;5.07;;;11.30;99.90;;;;;;5053288;28;20162;-73
2022/03/08 16:26:55;;;;;;;5.35;4.93;;;11.30;99.90;;;;;;5053231;28;20208;-73
2022/03/08 16:29:21;;;;;;;5.03;4.63;;;11.20;99.90;;;;;;5053283;28;20204;-73
2022/03/08 16:31:46;;;;;;;5.25;4.82;;;11.10;99.90;;;;;;5052954;28;20203;-72
2022/03/08 16:34:12;;;;;;;8.02;4.78;;;10.90;99.90;;;;;;5053144;28;20192;-73
2022/03/08 16:36:38;;;;;;;5.45;5.05;;;10.80;99.90;;;;;;5053135;28;20169;-73
2022/03/08 16:39:04;;;;;;;6.47;5.05;;;10.70;99.90;;;;;;5053089;28;20191;-72
2022/03/08 16:41:31;;;;;;;5.50;5.10;;;10.60;99.90;;;;;;5053117;28;20248;-73
2022/03/08 16:43:57;;;;;;;5.82;5.32;;;10.50;99.90;;;;;;5053110;28;20172;-73
2022/03/08 16:46:22;;;;;;;6.53;4.78;;;10.50;99.90;;;;;;5053087;28;20169;-73
2022/03/08 16:48:48;;;;;;;5.90;5.00;;;10.50;99.90;;;;;;5051438;28;20173;-73
2022/03/08 16:51:16;;;;;;;5.60;4.82;;;10.30;99.90;;;;;;5052930;28;20192;-73
2022/03/08 16:53:42;;;;;;;7.47;4.75;;;10.20;99.90;;;;;;5051745;28;20219;-73
2022/03/08 16:56:07;;;;;;;7.38;5.18;;;10.10;99.90;;;;;;5051751;28;20210;-73
2022/03/08 16:58:33;;;;;;;6.53;5.18;;;9.90;99.90;;;;;;5053049;28;20169;-73
2022/03/08 17:00:59;;;;;;;6.25;5.20;;;9.80;99.90;;;;;;5053004;28;20168;-73
2022/03/08 17:03:24;;;;;;;4.90;4.40;;;9.60;99.90;;;;;;5052908;28;20180;-73
2022/03/08 17:05:50;;;;;;;6.50;4.90;;;9.50;99.90;;;;;;5051627;28;20165;-73
2022/03/08 17:08:16;;;;;;;5.00;4.60;;;9.20;99.90;;;;;;5052868;28;20235;-73
2022/03/08 17:10:43;;;;;;;4.82;4.47;;;9.00;99.90;;;;;;5052715;28;20173;-73
2022/03/08 17:13:08;;;;;;;4.80;4.50;;;8.80;99.90;;;;;;5052782;28;20207;-73
2022/03/08 17:15:34;;;;;;;4.95;4.45;;;8.60;99.90;;;;;;5052873;28;20177;-73
2022/03/08 17:18:01;;;;;;;4.80;4.43;;;8.50;99.90;;;;;;5052827;28;20707;-73
2022/03/08 17:20:26;;;;;;;5.07;4.68;;;8.30;99.90;;;;;;5051510;28;20177;-73
2022/03/08 17:22:52;;;;;;;5.07;4.60;;;8.10;99.90;;;;;;5052705;28;20173;-73
2022/03/08 17:25:18;;;;;;;4.68;4.28;;;8.00;99.90;;;;;;5052711;28;20592;-73
2022/03/08 17:27:44;;;;;;;5.28;4.78;;;7.80;99.90;;;;;;5052657;28;20181;-73
